createdAt,value
2018-01-25T00:05:39.128Z,9.22
2018-01-25T00:06:15.694Z,9.18
2018-01-25T00:07:15.944Z,9.13
2018-01-25T00:08:16.206Z,9.04
2018-01-25T00:09:15.934Z,9.16
2018-01-25T00:10:16.663Z,9.06
2018-01-25T00:11:16.231Z,9.16
2018-01-25T00:12:16.183Z,9.14
2018-01-25T00:13:15.921Z,9.19
2018-01-25T00:14:16.095Z,9.18
2018-01-25T00:15:16.662Z,9.19
2018-01-25T00:16:15.651Z,9.22
2018-01-25T00:17:16.154Z,9.19
2018-01-25T00:18:16.135Z,9.19
2018-01-25T00:19:15.884Z,9.19
2018-01-25T00:20:16.697Z,9.28
2018-01-25T00:21:17.482Z,9.29
2018-01-25T00:22:15.862Z,9.31
2018-01-25T00:23:16.119Z,9.31
2018-01-25T00:24:15.851Z,9.28
2018-01-25T00:25:16.980Z,9.26
2018-01-25T00:26:16.104Z,9.32
2018-01-25T00:27:15.836Z,9.31
2018-01-25T00:28:16.101Z,9.34
2018-01-25T00:29:15.827Z,9.29
2018-01-25T00:30:17.681Z,9.31
2018-01-25T00:31:15.811Z,9.19
2018-01-25T00:32:15.557Z,9.22
2018-01-25T00:33:15.803Z,9.21
2018-01-25T00:34:16.063Z,9.19
2018-01-25T00:35:18.155Z,9.11
2018-01-25T00:36:15.790Z,9.11
2018-01-25T00:37:16.041Z,8.99
2018-01-25T00:38:15.788Z,8.99
2018-01-25T00:39:16.040Z,9.04
2018-01-25T00:40:17.742Z,9.04
2018-01-25T00:41:16.026Z,8.94
2018-01-25T00:42:15.771Z,8.99
2018-01-25T00:43:15.768Z,9.13
2018-01-25T00:44:16.006Z,9.1
2018-01-25T00:45:17.969Z,9.14
2018-01-25T00:46:15.734Z,9.11
2018-01-25T00:47:15.478Z,9.16
2018-01-25T00:48:15.725Z,9.03
2018-01-25T00:49:15.754Z,9.14
2018-01-25T00:50:17.694Z,9
2018-01-25T00:51:15.742Z,9.02
2018-01-25T00:52:15.714Z,9.16
2018-01-25T00:53:15.708Z,9.13
2018-01-25T00:54:15.716Z,9.21
2018-01-25T00:55:17.057Z,9.18
2018-01-25T00:56:15.741Z,9.18
2018-01-25T00:57:15.680Z,9.19
2018-01-25T00:58:15.942Z,9.25
2018-01-25T00:59:15.426Z,9.29
2018-01-25T01:00:17.144Z,9.16
2018-01-25T01:01:15.925Z,9.32
2018-01-25T01:02:15.665Z,9.31
2018-01-25T01:03:15.907Z,9.26
2018-01-25T01:04:15.927Z,9.16
2018-01-25T01:05:17.055Z,9.31
2018-01-25T01:06:15.896Z,9.19
2018-01-25T01:07:15.902Z,9.19
2018-01-25T01:08:15.872Z,9.19
2018-01-25T01:09:15.937Z,9.13
2018-01-25T01:10:17.390Z,9.04
2018-01-25T01:11:15.864Z,9.14
2018-01-25T01:12:16.630Z,9.02
2018-01-25T01:13:15.855Z,9.02
2018-01-25T01:14:15.596Z,8.97
2018-01-25T01:15:17.118Z,8.95
2018-01-25T01:16:15.333Z,9.02
2018-01-25T01:17:15.838Z,8.88
2018-01-25T01:18:15.838Z,8.88
2018-01-25T01:19:15.820Z,8.92
2018-01-25T01:20:16.517Z,8.87
2018-01-25T01:21:15.822Z,8.95
2018-01-25T01:22:15.552Z,8.92
2018-01-25T01:23:15.804Z,9.03
2018-01-25T01:24:15.812Z,8.94
2018-01-25T01:25:17.492Z,9.03
2018-01-25T01:26:15.797Z,8.94
2018-01-25T01:27:15.778Z,9.04
2018-01-25T01:28:15.519Z,8.91
2018-01-25T01:29:15.769Z,8.97
2018-01-25T01:30:17.399Z,8.97
2018-01-25T01:31:15.757Z,8.89
2018-01-25T01:32:15.498Z,8.92
2018-01-25T01:33:15.239Z,8.88
2018-01-25T01:34:15.481Z,8.88
2018-01-25T01:35:16.689Z,8.79
2018-01-25T01:36:17.621Z,8.84
2018-01-25T01:37:15.225Z,8.84
2018-01-25T01:38:15.736Z,8.71
2018-01-25T01:39:15.733Z,8.73
2018-01-25T01:40:17.063Z,8.67
2018-01-25T01:41:15.201Z,8.63
2018-01-25T01:42:15.699Z,8.53
2018-01-25T01:43:15.693Z,8.61
2018-01-25T01:44:15.423Z,8.49
2018-01-25T01:45:16.995Z,8.52
2018-01-25T01:46:15.672Z,8.56
2018-01-25T01:47:15.700Z,8.51
2018-01-25T01:48:15.649Z,8.56
2018-01-25T01:49:15.406Z,8.55
2018-01-25T01:50:16.875Z,8.53
2018-01-25T01:51:15.681Z,8.6
2018-01-25T01:52:15.639Z,8.49
2018-01-25T01:53:15.371Z,8.51
2018-01-25T01:54:15.367Z,8.49
2018-01-25T01:55:16.440Z,8.38
2018-01-25T01:56:15.352Z,8.44
2018-01-25T01:57:15.605Z,8.38
2018-01-25T01:58:15.086Z,8.41
2018-01-25T01:59:15.583Z,8.44
2018-01-25T02:00:16.105Z,8.42
2018-01-25T02:01:15.612Z,8.42
2018-01-25T02:02:15.319Z,8.42
2018-01-25T02:03:15.316Z,8.37
2018-01-25T02:04:15.314Z,8.36
2018-01-25T02:05:16.711Z,8.37
2018-01-25T02:06:15.548Z,8.3
2018-01-25T02:07:15.351Z,8.34
2018-01-25T02:08:15.530Z,8.26
2018-01-25T02:09:15.529Z,8.24
2018-01-25T02:10:16.099Z,8.15
2018-01-25T02:11:15.524Z,8.18
2018-01-25T02:12:15.504Z,8.09
2018-01-25T02:13:14.994Z,8.05
2018-01-25T02:14:15.492Z,7.98
2018-01-25T02:15:16.363Z,8.09
2018-01-25T02:16:14.983Z,8.09
2018-01-25T02:17:15.222Z,8.08
2018-01-25T02:18:15.478Z,7.98
2018-01-25T02:19:15.226Z,7.91
2018-01-25T02:20:16.543Z,7.95
2018-01-25T02:21:15.450Z,7.95
2018-01-25T02:22:15.448Z,7.9
2018-01-25T02:23:15.445Z,7.94
2018-01-25T02:24:14.932Z,7.88
2018-01-25T02:25:16.887Z,7.79
2018-01-25T02:26:15.433Z,7.83
2018-01-25T02:27:14.915Z,7.72
2018-01-25T02:28:15.151Z,7.73
2018-01-25T02:29:15.201Z,7.77
2018-01-25T02:30:16.121Z,7.76
2018-01-25T02:31:14.888Z,7.79
2018-01-25T02:32:15.139Z,7.83
2018-01-25T02:33:15.374Z,7.83
2018-01-25T02:34:15.128Z,7.95
2018-01-25T02:35:16.867Z,7.95
2018-01-25T02:36:15.368Z,7.88
2018-01-25T02:37:15.367Z,7.88
2018-01-25T02:38:15.375Z,7.91
2018-01-25T02:39:15.088Z,7.9
2018-01-25T02:40:16.332Z,7.87
2018-01-25T02:41:15.334Z,7.82
2018-01-25T02:42:15.326Z,7.94
2018-01-25T02:43:15.056Z,7.82
2018-01-25T02:44:15.047Z,7.83
2018-01-25T02:45:16.680Z,7.82
2018-01-25T02:46:15.046Z,7.82
2018-01-25T02:47:15.398Z,7.76
2018-01-25T02:48:15.269Z,7.83
2018-01-25T02:49:15.019Z,7.79
2018-01-25T02:50:16.917Z,7.87
2018-01-25T02:51:15.316Z,7.8
2018-01-25T02:52:15.165Z,7.87
2018-01-25T02:53:14.780Z,7.8
2018-01-25T02:54:15.072Z,7.91
2018-01-25T02:55:16.295Z,7.94
2018-01-25T02:56:15.313Z,7.9
2018-01-25T02:57:15.113Z,7.91
2018-01-25T02:58:15.439Z,7.94
2018-01-25T02:59:15.140Z,7.94
2018-01-25T03:00:16.063Z,7.9
2018-01-25T03:01:14.956Z,7.94
2018-01-25T03:02:15.192Z,8.03
2018-01-25T03:03:14.925Z,8
2018-01-25T03:04:15.228Z,8.05
2018-01-25T03:05:16.642Z,8.09
2018-01-25T03:06:15.201Z,8.15
2018-01-25T03:07:15.407Z,8.23
2018-01-25T03:08:15.158Z,8.19
2018-01-25T03:09:15.144Z,8.16
2018-01-25T03:10:15.941Z,8.18
2018-01-25T03:11:14.873Z,8.3
2018-01-25T03:12:14.868Z,8.24
2018-01-25T03:13:15.122Z,8.33
2018-01-25T03:14:15.109Z,8.33
2018-01-25T03:15:16.662Z,8.33
2018-01-25T03:16:14.850Z,8.31
2018-01-25T03:17:15.088Z,8.33
2018-01-25T03:18:14.891Z,8.3
2018-01-25T03:19:15.117Z,8.33
2018-01-25T03:20:16.637Z,8.27
2018-01-25T03:21:14.817Z,8.28
2018-01-25T03:22:15.064Z,8.19
2018-01-25T03:23:15.064Z,8.1
2018-01-25T03:24:14.800Z,8.23
2018-01-25T03:25:16.111Z,8.23
2018-01-25T03:26:15.037Z,8.16
2018-01-25T03:27:14.782Z,8.16
2018-01-25T03:28:14.780Z,8.1
2018-01-25T03:29:15.025Z,8.18
2018-01-25T03:30:16.209Z,8.09
2018-01-25T03:31:14.763Z,8.05
2018-01-25T03:32:14.503Z,7.91
2018-01-25T03:33:14.747Z,8
2018-01-25T03:34:14.991Z,8.01
2018-01-25T03:35:16.238Z,7.93
2018-01-25T03:36:14.973Z,7.9
2018-01-25T03:37:14.468Z,7.95
2018-01-25T03:38:14.989Z,7.95
2018-01-25T03:39:14.457Z,7.88
2018-01-25T03:40:16.448Z,8
2018-01-25T03:41:14.701Z,7.98
2018-01-25T03:42:14.443Z,7.94
2018-01-25T03:43:14.453Z,8.08
2018-01-25T03:44:14.701Z,8
2018-01-25T03:45:16.566Z,8.05
2018-01-25T03:46:14.663Z,8.05
2018-01-25T03:47:14.909Z,8.03
2018-01-25T03:48:14.690Z,8.06
2018-01-25T03:49:14.953Z,8.05
2018-01-25T03:50:15.840Z,8.01
2018-01-25T03:51:14.899Z,8.05
2018-01-25T03:52:14.628Z,8.19
2018-01-25T03:53:14.865Z,8.16
2018-01-25T03:54:14.617Z,8.23
2018-01-25T03:55:16.314Z,8.19
2018-01-25T03:56:14.596Z,8.33
2018-01-25T03:57:14.593Z,8.31
2018-01-25T03:58:14.837Z,8.38
2018-01-25T03:59:14.836Z,8.42
2018-01-25T04:00:15.494Z,8.45
2018-01-25T04:01:14.833Z,8.45
2018-01-25T04:02:14.585Z,8.41
2018-01-25T04:03:14.831Z,8.44
2018-01-25T04:04:14.575Z,8.37
2018-01-25T04:05:16.331Z,8.37
2018-01-25T04:06:14.543Z,8.42
2018-01-25T04:07:14.532Z,8.45
2018-01-25T04:08:14.534Z,8.48
2018-01-25T04:09:14.776Z,8.42
2018-01-25T04:10:16.833Z,8.42
2018-01-25T04:11:14.519Z,8.42
2018-01-25T04:12:14.517Z,8.42
2018-01-25T04:13:14.498Z,8.42
2018-01-25T04:14:14.756Z,8.51
2018-01-25T04:15:16.248Z,8.52
2018-01-25T04:16:14.479Z,8.55
2018-01-25T04:17:14.742Z,8.55
2018-01-25T04:18:14.470Z,8.6
2018-01-25T04:19:14.466Z,8.61
2018-01-25T04:20:16.360Z,8.67
2018-01-25T04:21:14.200Z,8.6
2018-01-25T04:22:14.693Z,8.53
2018-01-25T04:23:14.445Z,8.55
2018-01-25T04:24:14.685Z,8.6
2018-01-25T04:25:16.085Z,8.56
2018-01-25T04:26:14.732Z,8.55
2018-01-25T04:27:14.674Z,8.52
2018-01-25T04:28:14.167Z,8.51
2018-01-25T04:29:14.652Z,8.52
2018-01-25T04:30:16.420Z,8.42
2018-01-25T04:31:14.650Z,8.51
2018-01-25T04:32:14.406Z,8.51
2018-01-25T04:33:14.381Z,8.48
2018-01-25T04:34:14.627Z,8.45
2018-01-25T04:35:16.340Z,8.48
2018-01-25T04:36:14.360Z,8.41
2018-01-25T04:37:15.457Z,8.44
2018-01-25T04:38:14.356Z,8.42
2018-01-25T04:39:14.599Z,8.42
2018-01-25T04:40:16.448Z,8.44
2018-01-25T04:41:14.585Z,8.44
2018-01-25T04:42:14.589Z,8.41
2018-01-25T04:43:14.624Z,8.38
2018-01-25T04:44:14.077Z,8.44
2018-01-25T04:45:16.333Z,8.45
2018-01-25T04:46:14.557Z,8.44
2018-01-25T04:47:14.550Z,8.44
2018-01-25T04:48:14.290Z,8.42
2018-01-25T04:49:14.287Z,8.38
2018-01-25T04:50:15.713Z,8.52
2018-01-25T04:51:14.272Z,8.53
2018-01-25T04:52:14.533Z,8.55
2018-01-25T04:53:14.518Z,8.55
2018-01-25T04:54:14.003Z,8.51
2018-01-25T04:55:16.008Z,8.53
2018-01-25T04:56:14.258Z,8.53
2018-01-25T04:57:14.494Z,8.49
2018-01-25T04:58:14.485Z,8.53
2018-01-25T04:59:14.227Z,8.48
2018-01-25T05:00:15.692Z,8.52
2018-01-25T05:01:14.215Z,8.58
2018-01-25T05:02:14.211Z,8.7
2018-01-25T05:03:14.459Z,8.81
2018-01-25T05:04:14.200Z,8.89
2018-01-25T05:05:15.942Z,9
2018-01-25T05:06:14.448Z,9.13
2018-01-25T05:07:14.447Z,9.16
2018-01-25T05:08:14.177Z,9.18
2018-01-25T05:09:14.425Z,9.19
2018-01-25T05:10:16.182Z,9.32
2018-01-25T05:11:14.412Z,9.4
2018-01-25T05:12:14.420Z,9.46
2018-01-25T05:13:14.152Z,9.43
2018-01-25T05:14:14.148Z,9.48
2018-01-25T05:15:16.170Z,9.55
2018-01-25T05:16:14.394Z,9.66
2018-01-25T05:17:14.378Z,9.73
2018-01-25T05:18:14.118Z,9.66
2018-01-25T05:19:14.369Z,9.74
2018-01-25T05:20:15.656Z,9.79
2018-01-25T05:21:14.353Z,9.79
2018-01-25T05:22:14.376Z,9.91
2018-01-25T05:23:14.094Z,9.97
2018-01-25T05:24:14.332Z,10.09
2018-01-25T05:25:15.877Z,10.15
2018-01-25T05:26:14.079Z,10.23
2018-01-25T05:27:14.392Z,10.3
2018-01-25T05:28:14.063Z,10.28
2018-01-25T05:29:14.316Z,10.3
2018-01-25T05:30:15.402Z,10.4
2018-01-25T05:31:14.314Z,10.44
2018-01-25T05:32:14.051Z,10.49
2018-01-25T05:33:14.041Z,10.54
2018-01-25T05:34:13.798Z,10.57
2018-01-25T05:35:15.404Z,10.56
2018-01-25T05:36:14.024Z,10.6
2018-01-25T05:37:14.269Z,10.59
2018-01-25T05:38:14.270Z,10.57
2018-01-25T05:39:14.265Z,10.69
2018-01-25T05:40:16.340Z,10.63
2018-01-25T05:41:14.248Z,10.6
2018-01-25T05:42:14.246Z,10.63
2018-01-25T05:43:13.995Z,10.72
2018-01-25T05:44:13.995Z,10.68
2018-01-25T05:45:16.259Z,10.59
2018-01-25T05:46:13.975Z,10.61
2018-01-25T05:47:13.724Z,10.59
2018-01-25T05:48:13.718Z,10.53
2018-01-25T05:49:14.232Z,10.49
2018-01-25T05:50:15.851Z,10.42
2018-01-25T05:51:13.710Z,10.38
2018-01-25T05:52:13.950Z,10.3
2018-01-25T05:53:13.952Z,10.26
2018-01-25T05:54:13.947Z,10.16
2018-01-25T05:55:15.085Z,10.16
2018-01-25T05:56:13.937Z,10.15
2018-01-25T05:57:13.925Z,10.07
2018-01-25T05:58:13.940Z,9.99
2018-01-25T05:59:13.670Z,9.97
2018-01-25T06:00:15.811Z,9.99
2018-01-25T06:01:14.159Z,9.89
2018-01-25T06:02:14.209Z,9.91
2018-01-25T06:03:13.905Z,9.94
2018-01-25T06:04:14.150Z,9.83
2018-01-25T06:05:15.598Z,9.87
2018-01-25T06:06:13.884Z,9.76
2018-01-25T06:07:13.628Z,9.82
2018-01-25T06:08:15.178Z,9.74
2018-01-25T06:09:14.122Z,9.65
2018-01-25T06:10:15.112Z,9.55
2018-01-25T06:11:13.607Z,9.58
2018-01-25T06:12:14.125Z,9.56
2018-01-25T06:13:14.112Z,9.59
2018-01-25T06:14:13.595Z,9.55
2018-01-25T06:15:15.798Z,9.55
2018-01-25T06:16:14.094Z,9.51
2018-01-25T06:17:13.596Z,9.48
2018-01-25T06:18:13.829Z,9.43
2018-01-25T06:19:13.819Z,9.43
2018-01-25T06:20:15.273Z,9.37
2018-01-25T06:21:13.557Z,9.39
2018-01-25T06:22:13.808Z,9.29
2018-01-25T06:23:14.052Z,9.32
2018-01-25T06:24:14.051Z,9.34
2018-01-25T06:25:16.019Z,9.26
2018-01-25T06:26:14.052Z,9.19
2018-01-25T06:27:13.531Z,9.28
2018-01-25T06:28:13.528Z,9.29
2018-01-25T06:29:13.777Z,9.19
2018-01-25T06:30:15.896Z,9.19
2018-01-25T06:31:14.019Z,9.23
2018-01-25T06:32:13.770Z,9.25
2018-01-25T06:33:13.752Z,9.16
2018-01-25T06:34:13.513Z,9.25
2018-01-25T06:35:15.314Z,9.16
2018-01-25T06:36:13.994Z,9.14
2018-01-25T06:37:13.739Z,9.1
2018-01-25T06:38:13.979Z,9.11
2018-01-25T06:39:13.726Z,9.13
2018-01-25T06:40:14.832Z,9.04
2018-01-25T06:41:13.964Z,9.03
2018-01-25T06:42:13.959Z,9.02
2018-01-25T06:43:13.450Z,9.03
2018-01-25T06:44:13.954Z,9.03
2018-01-25T06:45:15.796Z,9.1
2018-01-25T06:46:13.946Z,8.92
2018-01-25T06:47:13.684Z,9.02
2018-01-25T06:48:13.683Z,8.95
2018-01-25T06:49:13.670Z,8.92
2018-01-25T06:50:15.538Z,8.89
2018-01-25T06:51:13.922Z,8.99
2018-01-25T06:52:13.657Z,8.85
2018-01-25T06:53:13.650Z,8.88
2018-01-25T06:54:13.945Z,8.95
2018-01-25T06:55:15.399Z,8.99
2018-01-25T06:56:13.641Z,9.02
2018-01-25T06:57:13.627Z,9.03
2018-01-25T06:58:13.627Z,8.94
2018-01-25T06:59:13.877Z,8.95
2018-01-25T07:00:14.740Z,8.99
2018-01-25T07:01:13.871Z,8.92
2018-01-25T07:02:13.598Z,8.95
2018-01-25T07:03:13.847Z,9.02
2018-01-25T07:04:13.596Z,8.95
2018-01-25T07:05:15.093Z,8.94
2018-01-25T07:06:13.581Z,9
2018-01-25T07:07:13.334Z,9.02
2018-01-25T07:08:14.873Z,9.02
2018-01-25T07:09:13.821Z,9.02
2018-01-25T07:10:15.158Z,8.87
2018-01-25T07:11:13.808Z,8.87
2018-01-25T07:12:13.846Z,9
2018-01-25T07:13:13.551Z,8.85
2018-01-25T07:14:13.534Z,8.85
2018-01-25T07:15:15.335Z,8.94
2018-01-25T07:16:13.781Z,8.89
2018-01-25T07:17:13.285Z,8.89
2018-01-25T07:18:13.522Z,8.99
2018-01-25T07:19:13.518Z,8.92
2018-01-25T07:20:15.717Z,8.88
2018-01-25T07:21:13.493Z,8.89
2018-01-25T07:22:13.738Z,8.94
2018-01-25T07:23:13.239Z,8.91
2018-01-25T07:24:13.480Z,8.88
2018-01-25T07:25:14.669Z,8.88
2018-01-25T07:26:13.468Z,8.85
2018-01-25T07:27:13.716Z,8.84
2018-01-25T07:28:13.706Z,8.92
2018-01-25T07:29:13.455Z,8.92
2018-01-25T07:30:15.667Z,9.04
2018-01-25T07:31:13.442Z,9
2018-01-25T07:32:13.186Z,9.11
2018-01-25T07:33:13.680Z,9
2018-01-25T07:34:13.168Z,9.03
2018-01-25T07:35:14.480Z,9.11
2018-01-25T07:36:13.661Z,9.1
2018-01-25T07:37:13.158Z,9.08
2018-01-25T07:38:13.659Z,9.14
2018-01-25T07:39:13.646Z,9.19
2018-01-25T07:40:15.723Z,9.14
2018-01-25T07:41:13.393Z,9.11
2018-01-25T07:42:13.415Z,9.19
2018-01-25T07:43:13.379Z,9.22
2018-01-25T07:44:13.376Z,9.19
2018-01-25T07:45:14.238Z,9.18
2018-01-25T07:46:13.607Z,9.19
2018-01-25T07:47:13.357Z,9.18
2018-01-25T07:48:13.614Z,9.14
2018-01-25T07:49:13.338Z,9.14
2018-01-25T07:50:14.632Z,9.19
2018-01-25T07:51:13.582Z,9.23
2018-01-25T07:52:13.330Z,9.25
2018-01-25T07:53:13.571Z,9.19
2018-01-25T07:54:13.572Z,9.25
2018-01-25T07:55:14.947Z,9.19
2018-01-25T07:56:13.309Z,9.16
2018-01-25T07:57:13.309Z,9.18
2018-01-25T07:58:13.552Z,9.18
2018-01-25T07:59:13.294Z,9.16
2018-01-25T08:00:15.323Z,9.21
2018-01-25T08:01:13.531Z,9.29
2018-01-25T08:02:13.526Z,9.22
2018-01-25T08:03:13.021Z,9.16
2018-01-25T08:04:13.266Z,9.18
2018-01-25T08:05:15.143Z,9.31
2018-01-25T08:06:13.255Z,9.23
2018-01-25T08:07:13.000Z,9.25
2018-01-25T08:08:13.495Z,9.25
2018-01-25T08:09:13.253Z,9.31
2018-01-25T08:10:15.098Z,9.14
2018-01-25T08:11:12.978Z,9.29
2018-01-25T08:12:13.477Z,9.31
2018-01-25T08:13:12.979Z,9.26
2018-01-25T08:14:13.471Z,9.31
2018-01-25T08:15:14.805Z,9.4
2018-01-25T08:16:13.205Z,9.37
2018-01-25T08:17:13.562Z,9.48
2018-01-25T08:18:12.947Z,9.43
2018-01-25T08:19:13.448Z,9.43
2018-01-25T08:20:13.669Z,9.41
2018-01-25T08:21:13.440Z,9.43
2018-01-25T08:22:13.478Z,9.58
2018-01-25T08:23:13.171Z,9.58
2018-01-25T08:24:13.168Z,9.58
2018-01-25T08:25:14.724Z,9.59
2018-01-25T08:26:13.163Z,9.55
2018-01-25T08:27:13.408Z,9.55
2018-01-25T08:28:12.899Z,9.66
2018-01-25T08:29:13.159Z,9.61
2018-01-25T08:30:15.092Z,9.64
2018-01-25T08:31:12.886Z,9.66
2018-01-25T08:32:13.132Z,9.69
2018-01-25T08:33:13.127Z,9.69
2018-01-25T08:34:12.870Z,9.76
2018-01-25T08:35:15.046Z,9.86
2018-01-25T08:36:13.365Z,9.83
2018-01-25T08:37:13.127Z,9.84
2018-01-25T08:38:13.360Z,9.83
2018-01-25T08:39:13.385Z,9.89
2018-01-25T08:40:14.164Z,9.92
2018-01-25T08:41:12.846Z,9.95
2018-01-25T08:42:13.342Z,10.02
2018-01-25T08:43:13.083Z,9.98
2018-01-25T08:44:13.087Z,9.99
2018-01-25T08:45:14.718Z,10.01
2018-01-25T08:46:13.071Z,9.99
2018-01-25T08:47:13.133Z,10.07
2018-01-25T08:48:13.314Z,10.09
2018-01-25T08:49:13.110Z,10.09
2018-01-25T08:50:14.709Z,10.17
2018-01-25T08:51:13.308Z,10.13
2018-01-25T08:52:13.053Z,10.13
2018-01-25T08:53:13.041Z,10.16
2018-01-25T08:54:13.301Z,10.07
2018-01-25T08:55:15.073Z,10.12
2018-01-25T08:56:13.040Z,10.17
2018-01-25T08:57:13.282Z,10.13
2018-01-25T08:58:12.770Z,10.3
2018-01-25T08:59:13.349Z,10.26
2018-01-25T09:00:15.274Z,10.23
2018-01-25T09:01:12.763Z,10.28
2018-01-25T09:02:13.285Z,10.33
2018-01-25T09:03:12.761Z,10.28
2018-01-25T09:04:13.286Z,10.28
2018-01-25T09:05:14.768Z,10.22
2018-01-25T09:06:13.246Z,10.28
2018-01-25T09:07:12.985Z,10.28
2018-01-25T09:08:12.994Z,10.28
2018-01-25T09:09:13.962Z,10.17
2018-01-25T09:10:14.979Z,10.22
2018-01-25T09:11:12.723Z,10.28
2018-01-25T09:12:12.717Z,10.28
2018-01-25T09:13:12.963Z,10.22
2018-01-25T09:14:13.221Z,10.31
2018-01-25T09:15:14.355Z,10.31
2018-01-25T09:16:12.704Z,10.34
2018-01-25T09:17:12.694Z,10.25
2018-01-25T09:18:12.945Z,10.33
2018-01-25T09:19:12.748Z,10.3
2018-01-25T09:20:14.149Z,10.35
2018-01-25T09:21:12.927Z,10.35
2018-01-25T09:22:13.181Z,10.38
2018-01-25T09:23:12.926Z,10.37
2018-01-25T09:24:13.174Z,10.48
2018-01-25T09:25:14.423Z,10.4
2018-01-25T09:26:13.174Z,10.42
2018-01-25T09:27:13.176Z,10.42
2018-01-25T09:28:12.901Z,10.44
2018-01-25T09:29:12.900Z,10.54
2018-01-25T09:30:14.533Z,10.56
2018-01-25T09:31:13.151Z,10.49
2018-01-25T09:32:12.896Z,10.53
2018-01-25T09:33:12.893Z,10.46
2018-01-25T09:34:12.882Z,10.53
2018-01-25T09:35:14.205Z,10.57
2018-01-25T09:36:12.625Z,10.56
2018-01-25T09:37:12.870Z,10.6
2018-01-25T09:38:12.864Z,10.61
2018-01-25T09:39:13.910Z,10.63
2018-01-25T09:40:14.009Z,10.54
2018-01-25T09:41:12.888Z,10.6
2018-01-25T09:42:12.598Z,10.54
2018-01-25T09:43:13.107Z,10.59
2018-01-25T09:44:12.844Z,10.57
2018-01-25T09:45:14.516Z,10.61
2018-01-25T09:46:13.086Z,10.63
2018-01-25T09:47:13.087Z,10.64
2018-01-25T09:48:12.833Z,10.74
2018-01-25T09:49:12.833Z,10.74
2018-01-25T09:50:14.518Z,10.81
2018-01-25T09:51:12.566Z,10.79
2018-01-25T09:52:12.810Z,10.9
2018-01-25T09:53:12.557Z,10.96
2018-01-25T09:54:12.815Z,11
2018-01-25T09:55:14.374Z,10.99
2018-01-25T09:56:13.060Z,10.96
2018-01-25T09:57:12.808Z,11.04
2018-01-25T09:58:13.045Z,11.08
2018-01-25T09:59:12.797Z,11.17
2018-01-25T10:00:14.951Z,11.22
2018-01-25T10:01:13.046Z,11.29
2018-01-25T10:02:13.048Z,11.32
2018-01-25T10:03:12.782Z,11.37
2018-01-25T10:04:12.771Z,11.43
2018-01-25T10:05:14.254Z,11.33
2018-01-25T10:06:12.768Z,11.35
2018-01-25T10:07:12.761Z,11.5
2018-01-25T10:08:13.042Z,11.43
2018-01-25T10:09:12.751Z,11.41
2018-01-25T10:10:14.147Z,11.41
2018-01-25T10:11:13.010Z,11.44
2018-01-25T10:12:12.757Z,11.52
2018-01-25T10:13:13.000Z,11.52
2018-01-25T10:14:13.016Z,11.62
2018-01-25T10:15:14.050Z,11.55
2018-01-25T10:16:12.738Z,11.54
2018-01-25T10:17:12.731Z,11.52
2018-01-25T10:18:12.735Z,11.52
2018-01-25T10:19:12.988Z,11.6
2018-01-25T10:20:14.353Z,11.54
2018-01-25T10:21:13.038Z,11.52
2018-01-25T10:22:12.975Z,11.55
2018-01-25T10:53:12.570Z,12.13
2018-01-25T10:54:12.305Z,12.15
2018-01-25T10:55:14.142Z,12.22
2018-01-25T10:56:12.558Z,12.21
2018-01-25T10:57:12.542Z,12.25
2018-01-25T10:58:12.525Z,12.24
2018-01-25T10:59:12.271Z,12.25
2018-01-25T11:00:12.728Z,12.25
2018-01-25T11:01:12.525Z,12.29
2018-01-25T11:02:12.757Z,12.43
2018-01-25T11:03:12.823Z,12.31
2018-01-25T11:04:12.495Z,12.35
2018-01-25T11:05:13.676Z,12.39
2018-01-25T11:06:12.754Z,12.43
2018-01-25T11:07:12.741Z,12.4
2018-01-25T11:08:12.479Z,12.35
2018-01-25T11:09:12.728Z,12.47
2018-01-25T11:10:14.315Z,12.47
2018-01-25T11:11:12.470Z,12.47
2018-01-25T11:12:12.734Z,12.5
2018-01-25T11:13:12.216Z,12.53
2018-01-25T11:14:12.477Z,12.5
2018-01-25T11:15:14.085Z,12.5
2018-01-25T11:16:12.464Z,12.55
2018-01-25T11:17:12.478Z,12.61
2018-01-25T11:18:12.471Z,12.64
2018-01-25T11:19:12.705Z,12.62
2018-01-25T11:20:14.154Z,12.62
2018-01-25T11:21:12.706Z,12.53
2018-01-25T11:22:12.705Z,12.5
2018-01-25T11:23:12.186Z,12.5
2018-01-25T11:24:12.451Z,12.6
2018-01-25T11:25:13.374Z,12.58
2018-01-25T11:26:12.731Z,12.67
2018-01-25T11:27:12.435Z,12.64
2018-01-25T11:28:12.688Z,12.7
2018-01-25T11:29:12.428Z,12.78
2018-01-25T11:30:13.923Z,12.76
2018-01-25T11:31:12.682Z,12.8
2018-01-25T11:32:12.689Z,12.79
2018-01-25T11:33:12.781Z,12.8
2018-01-25T11:34:12.437Z,12.86
2018-01-25T11:35:13.510Z,12.79
2018-01-25T11:36:12.456Z,12.82
2018-01-25T11:37:12.738Z,12.83
2018-01-25T11:38:12.166Z,12.85
2018-01-25T11:39:12.667Z,12.82
2018-01-25T11:40:13.980Z,12.87
2018-01-25T11:41:12.165Z,12.85
2018-01-25T11:42:12.655Z,12.85
2018-01-25T11:43:12.406Z,12.9
2018-01-25T11:44:12.459Z,12.82
2018-01-25T11:45:13.601Z,12.83
2018-01-25T11:46:12.405Z,12.85
2018-01-25T11:47:12.475Z,12.83
2018-01-25T11:48:12.393Z,12.9
2018-01-25T11:49:12.391Z,12.87
2018-01-25T11:50:13.733Z,12.86
2018-01-25T11:51:12.643Z,12.8
2018-01-25T11:52:12.643Z,12.91
2018-01-25T11:53:12.440Z,12.86
2018-01-25T11:54:12.636Z,12.76
2018-01-25T11:55:13.759Z,12.76
2018-01-25T11:56:12.128Z,12.75
2018-01-25T11:57:12.381Z,12.78
2018-01-25T11:58:12.633Z,12.78
2018-01-25T11:59:12.376Z,12.79
2018-01-25T12:00:13.871Z,12.83
2018-01-25T12:01:12.379Z,12.83
2018-01-25T12:02:12.125Z,12.82
2018-01-25T12:03:12.628Z,12.86
2018-01-25T12:04:12.387Z,12.8
2018-01-25T12:05:13.443Z,12.97
2018-01-25T12:06:12.378Z,13
2018-01-25T12:07:12.367Z,13.03
2018-01-25T12:08:12.704Z,13.04
2018-01-25T12:09:12.384Z,13.08
2018-01-25T12:10:14.402Z,13.08
2018-01-25T12:11:12.373Z,13.15
2018-01-25T12:12:12.606Z,13.15
2018-01-25T12:13:13.172Z,13.11
2018-01-25T12:14:12.352Z,13.16
2018-01-25T12:15:13.724Z,13.16
2018-01-25T12:16:12.602Z,13.2
2018-01-25T12:17:12.609Z,13.16
2018-01-25T12:18:13.952Z,13.31
2018-01-25T12:19:12.603Z,13.3
2018-01-25T12:20:13.824Z,13.41
2018-01-25T12:21:12.348Z,13.44
2018-01-25T12:22:12.354Z,13.33
2018-01-25T12:23:12.339Z,13.46
2018-01-25T12:24:12.340Z,13.47
2018-01-25T12:25:13.458Z,13.47
2018-01-25T12:26:12.595Z,13.46
2018-01-25T12:27:12.337Z,13.52
2018-01-25T12:28:12.339Z,13.59
2018-01-25T12:29:12.344Z,13.57
2018-01-25T12:30:13.564Z,13.65
2018-01-25T12:31:12.359Z,13.72
2018-01-25T12:32:12.345Z,13.68
2018-01-25T12:33:12.606Z,13.78
2018-01-25T12:34:12.354Z,13.83
2018-01-25T12:35:13.319Z,13.81
2018-01-25T12:36:12.075Z,13.86
2018-01-25T12:37:12.580Z,13.83
2018-01-25T12:38:12.326Z,13.87
2018-01-25T12:39:12.577Z,13.85
2018-01-25T12:40:13.563Z,13.83
2018-01-25T12:41:12.586Z,13.79
2018-01-25T12:42:12.068Z,13.83
2018-01-25T12:43:12.330Z,13.85
2018-01-25T12:44:12.067Z,13.83
2018-01-25T12:45:13.653Z,13.93
2018-01-25T12:46:12.064Z,13.97
2018-01-25T12:47:12.065Z,13.96
2018-01-25T12:48:12.317Z,13.85
2018-01-25T12:49:12.572Z,13.92
2018-01-25T12:50:14.171Z,13.95
2018-01-25T12:51:12.067Z,13.93
2018-01-25T12:52:12.312Z,13.87
2018-01-25T12:53:12.562Z,13.93
2018-01-25T12:54:12.056Z,13.79
2018-01-25T12:55:13.509Z,13.89
2018-01-25T12:56:12.316Z,13.81
2018-01-25T12:57:12.554Z,13.86
2018-01-25T12:58:12.054Z,13.77
2018-01-25T12:59:12.309Z,13.81
2018-01-25T13:00:12.936Z,13.81
2018-01-25T13:01:12.050Z,13.83
2018-01-25T13:02:12.361Z,13.81
2018-01-25T13:03:12.554Z,13.86
2018-01-25T13:04:12.547Z,13.83
2018-01-25T13:05:13.688Z,13.93
2018-01-25T13:06:12.546Z,13.95
2018-01-25T13:07:12.551Z,14.03
2018-01-25T13:08:12.547Z,13.99
2018-01-25T13:09:12.546Z,13.97
2018-01-25T13:10:13.764Z,13.92
2018-01-25T13:11:12.307Z,13.93
2018-01-25T13:12:12.305Z,13.87
2018-01-25T13:13:12.544Z,13.83
2018-01-25T13:14:12.289Z,13.85
2018-01-25T13:15:13.246Z,13.86
2018-01-25T13:16:12.299Z,13.78
2018-01-25T13:17:12.314Z,13.79
2018-01-25T13:18:12.296Z,13.81
2018-01-25T13:19:12.652Z,13.83
2018-01-25T13:20:13.789Z,13.85
2018-01-25T13:21:12.541Z,13.79
2018-01-25T13:22:12.287Z,13.9
2018-01-25T13:23:12.284Z,13.86
2018-01-25T13:24:12.283Z,13.85
2018-01-25T13:25:13.435Z,13.78
2018-01-25T13:26:12.277Z,13.92
2018-01-25T13:27:12.671Z,13.87
2018-01-25T13:28:12.375Z,13.79
2018-01-25T13:29:12.318Z,13.86
2018-01-25T13:30:13.903Z,13.87
2018-01-25T13:31:12.278Z,13.86
2018-01-25T13:32:12.279Z,13.86
2018-01-25T13:33:12.277Z,13.87
2018-01-25T13:34:12.290Z,13.83
2018-01-25T13:35:13.845Z,13.78
2018-01-25T13:36:12.522Z,13.89
2018-01-25T13:37:12.270Z,13.89
2018-01-25T13:38:12.658Z,13.87
2018-01-25T13:39:12.518Z,13.85
2018-01-25T13:40:13.115Z,13.81
2018-01-25T13:41:12.289Z,13.79
2018-01-25T13:42:12.275Z,13.93
2018-01-25T13:43:12.264Z,13.93
2018-01-25T13:44:12.258Z,13.9
2018-01-25T13:45:13.375Z,13.92
2018-01-25T13:46:12.264Z,13.86